Terminal Aerodrome Forecast
Issued by NWS

Home | Current Version | Previous Version | Text Only | Print | Product List | Glossary On
Versions: 1 2 3 4 5 6 7 8 9 10 11 12 13 14
000
FTUS46 KSTO 031127
TAFRBL
TAF
KRBL 031127Z 0312/0412 16008KT P6SM SCT250
      TEMPO 0321/0401 16013G19KT=

USA.gov is the U.S. government's official web portal to all federal, state and local government web resources and services.